Time;durP1;ratioP1;P1;durP2;ratioP2;P2;SDS_P1;SDS_P2;PMS_P1;PMS_P2;Temp;Humidity;BMP_temperature;BMP_pressure;BME280_temperature;BME280_humidity;BME280_pressure;Samples;Min_cycle;Max_cycle;Signal;HPM_P1;HPM_P2
2023/04/19 00:00:11;;;;;;;;;;;;;;;9.49;100.00;102671.88;4969511;28;20522;-72
2023/04/19 00:02:36;;;;;;;;;;;;;;;9.45;100.00;102668.44;4970908;28;19929;-72
2023/04/19 00:05:01;;;;;;;;;;;;;;;9.45;100.00;102665.75;4987303;28;19969;-73
2023/04/19 00:07:26;;;;;;;;;;;;;;;9.48;100.00;102670.97;4968761;28;19925;-72
2023/04/19 00:09:52;;;;;;;;;;;;;;;9.52;100.00;102661.88;4970884;28;19932;-72
2023/04/19 00:12:17;;;;;;;;;;;;;;;9.56;100.00;102665.28;4988370;28;19996;-72
2023/04/19 00:14:42;;;;;;;;;;;;;;;9.51;100.00;102660.13;4973884;28;19921;-72
2023/04/19 00:17:07;;;;;;;;;;;;;;;9.51;100.00;102660.13;4970167;28;19960;-72
2023/04/19 00:19:33;;;;;;;;;;;;;;;9.58;100.00;102663.41;4986733;28;19928;-73
2023/04/19 00:21:58;;;;;;;;;;;;;;;9.60;100.00;102664.19;4985964;28;19925;-72
2023/04/19 00:24:23;;;;;;;;;;;;;;;9.50;100.00;102661.06;4970456;28;19928;-72
2023/04/19 00:26:48;;;;;;;;;;;;;;;9.57;100.00;102656.28;4985610;28;19925;-72
2023/04/19 00:29:13;;;;;;;;;;;;;;;9.55;100.00;102655.47;4968641;28;19922;-72
2023/04/19 00:31:39;;;;;;;;;;;;;;;9.57;100.00;102650.91;4966420;28;19960;-73
2023/04/19 00:34:05;;;;;;;;;;;;;;;9.52;100.00;102648.47;4968626;28;20298;-72
2023/04/19 00:36:30;;;;;;;;;;;;;;;9.52;100.00;102658.31;4967581;28;19925;-72
2023/04/19 00:38:55;;;;;;;;;;;;;;;9.58;100.00;102648.19;4982839;28;19928;-72
2023/04/19 00:41:20;;;;;;;;;;;;;;;9.56;100.00;102646.50;4968734;28;20064;-72
2023/04/19 00:43:46;;;;;;;;;;;;;;;9.47;100.00;102652.28;4970469;28;20327;-72
2023/04/19 00:46:11;;;;;;;;;;;;;;;9.56;100.00;102649.19;4981580;28;19926;-72
2023/04/19 00:48:36;;;;;;;;;;;;;;;9.60;100.00;102638.28;4954099;28;19926;-71
2023/04/19 00:51:02;;;;;;;;;;;;;;;9.57;100.00;102642.88;4982771;28;19929;-72
2023/04/19 00:53:28;;;;;;;;;;;;;;;9.58;100.00;102636.56;4967269;28;19921;-72
2023/04/19 00:55:53;;;;;;;;;;;;;;;9.52;100.00;102648.47;4968535;28;19937;-72
2023/04/19 00:58:19;;;;;;;;;;;;;;;9.64;100.00;102628.25;4965982;28;19929;-71
2023/04/19 01:00:44;;;;;;;;;;;;;;;9.63;100.00;102636.41;4966456;28;20189;-72
2023/04/19 01:03:09;;;;;;;;;;;;;;;9.58;100.00;102629.41;4966640;28;20380;-72
2023/04/19 01:05:34;;;;;;;;;;;;;;;9.54;100.00;102634.97;4964005;28;19921;-72
2023/04/19 01:07:59;;;;;;;;;;;;;;;9.59;100.00;102623.13;4983560;28;19937;-72
2023/04/19 01:10:25;;;;;;;;;;;;;;;9.58;100.00;102629.41;4966446;28;20208;-72
2023/04/19 01:12:50;;;;;;;;;;;;;;;9.59;100.00;102623.13;4985636;28;19961;-73
2023/04/19 01:15:15;;;;;;;;;;;;;;;9.57;100.00;102624.09;4976506;28;19972;-72
2023/04/19 01:17:41;;;;;;;;;;;;;;;9.60;100.00;102618.59;4958535;28;19918;-72
2023/04/19 01:20:06;;;;;;;;;;;;;;;9.60;100.00;102627.53;4991809;28;20266;-72
2023/04/19 01:22:32;;;;;;;;;;;;;;;9.62;100.00;102624.78;4977247;28;20371;-72
2023/04/19 01:24:57;;;;;;;;;;;;;;;9.66;100.00;102626.38;4974389;28;19976;-72
2023/04/19 01:27:22;;;;;;;;;;;;;;;9.64;100.00;102622.03;4977416;28;19922;-72
2023/04/19 01:29:48;;;;;;;;;;;;;;;9.64;100.00;102620.22;4973427;28;20337;-72
2023/04/19 01:32:13;;;;;;;;;;;;;;;9.58;100.00;102625.84;4974956;28;19921;-72
2023/04/19 01:34:38;;;;;;;;;;;;;;;9.56;100.00;102623.25;4975849;28;20420;-72
2023/04/19 01:37:04;;;;;;;;;;;;;;;9.53;100.00;102625.22;4978972;28;19924;-72
2023/04/19 01:39:29;;;;;;;;;;;;;;;9.58;100.00;102624.06;4992387;28;20535;-73
2023/04/19 01:41:54;;;;;;;;;;;;;;;9.57;100.00;102616.94;4977180;28;19992;-72
2023/04/19 01:44:19;;;;;;;;;;;;;;;9.43;100.00;102617.56;4974183;28;20254;-72
2023/04/19 01:46:44;;;;;;;;;;;;;;;9.37;100.00;102623.19;4978243;28;20484;-72
2023/04/19 01:49:10;;;;;;;;;;;;;;;9.35;100.00;102624.22;4977889;28;20067;-72
2023/04/19 01:51:36;;;;;;;;;;;;;;;9.30;100.00;102617.25;4991146;28;20237;-73
2023/04/19 01:54:02;;;;;;;;;;;;;;;9.33;100.00;102621.59;4990701;28;19932;-72
2023/04/19 01:56:27;;;;;;;;;;;;;;;9.25;100.00;102615.72;4977555;28;19922;-72
2023/04/19 01:58:52;;;;;;;;;;;;;;;9.14;100.00;102619.72;4974090;28;19922;-72
2023/04/19 02:01:17;;;;;;;;;;;;;;;9.10;100.00;102618.09;4975505;28;19976;-72
2023/04/19 02:03:42;;;;;;;;;;;;;;;9.12;100.00;102620.72;4991285;28;19996;-73
2023/04/19 02:06:11;;;;;;;;;;;;;;;8.98;100.00;102611.47;4980783;28;19918;-72
2023/04/19 02:08:36;;;;;;;;;;;;;;;8.96;100.00;102616.00;4974601;28;19932;-72
2023/04/19 02:11:08;;;;;;;;;;;;;;;8.92;100.00;102621.59;4974161;28;19926;-72
2023/04/19 02:13:33;;;;;;;;;;;;;;;8.96;100.00;102625.88;4985152;28;19928;-73
2023/04/19 02:16:01;;;;;;;;;;;;;;;8.99;100.00;102615.88;4976987;28;19922;-72
2023/04/19 02:18:28;;;;;;;;;;;;;;;9.08;100.00;102624.47;4984251;28;19972;-72
2023/04/19 02:20:53;;;;;;;;;;;;;;;9.07;100.00;102604.84;4988162;28;20396;-72
2023/04/19 02:23:18;;;;;;;;;;;;;;;9.17;100.00;102605.31;4976099;28;19921;-72
2023/04/19 02:25:44;;;;;;;;;;;;;;;9.14;100.00;102603.63;4975278;28;19953;-72
2023/04/19 02:28:09;;;;;;;;;;;;;;;9.19;100.00;102611.47;4972136;28;19955;-72
2023/04/19 02:30:35;;;;;;;;;;;;;;;9.21;100.00;102608.75;4973473;28;19930;-72
2023/04/19 02:33:00;;;;;;;;;;;;;;;9.27;100.00;102612.00;4971890;28;20498;-72
2023/04/19 02:35:26;;;;;;;;;;;;;;;9.31;100.00;102602.00;4974831;28;19928;-72
2023/04/19 02:37:51;;;;;;;;;;;;;;;9.20;100.00;102615.03;4989698;28;20463;-71
2023/04/19 02:40:16;;;;;;;;;;;;;;;9.28;100.00;102612.88;4976047;28;19936;-72
2023/04/19 02:42:41;;;;;;;;;;;;;;;9.31;100.00;102615.41;4974894;28;19926;-72
2023/04/19 02:45:07;;;;;;;;;;;;;;;9.34;100.00;102617.13;4976530;28;19922;-72
2023/04/19 02:47:32;;;;;;;;;;;;;;;9.23;100.00;102613.06;4975606;28;20516;-73
2023/04/19 02:49:58;;;;;;;;;;;;;;;9.22;100.00;102611.34;4974140;28;19922;-72
2023/04/19 02:52:24;;;;;;;;;;;;;;;9.35;100.00;102625.06;4973595;28;20016;-73
2023/04/19 02:54:50;;;;;;;;;;;;;;;9.29;100.00;102618.19;4970857;28;19997;-73
2023/04/19 02:57:15;;;;;;;;;;;;;;;9.36;100.00;102624.13;4973547;28;19926;-73
2023/04/19 02:59:40;;;;;;;;;;;;;;;9.35;100.00;102627.75;4973050;28;19928;-72
2023/04/19 03:02:05;;;;;;;;;;;;;;;9.32;100.00;102618.97;4976426;28;19922;-71
2023/04/19 03:04:31;;;;;;;;;;;;;;;9.26;100.00;102614.78;4973636;28;20196;-72
2023/04/19 03:06:56;;;;;;;;;;;;;;;9.21;100.00;102614.94;4973829;28;19973;-72
2023/04/19 03:09:21;;;;;;;;;;;;;;;9.20;100.00;102613.22;4987932;28;19984;-72
2023/04/19 03:11:46;;;;;;;;;;;;;;;9.17;100.00;102612.50;4974396;28;19976;-72
2023/04/19 03:14:12;;;;;;;;;;;;;;;9.26;100.00;102617.47;4971901;28;19940;-72
2023/04/19 03:16:37;;;;;;;;;;;;;;;9.23;100.00;102617.59;4976774;28;19917;-72
2023/04/19 03:19:02;;;;;;;;;;;;;;;9.30;100.00;102622.59;4986733;28;20350;-73
2023/04/19 03:21:28;;;;;;;;;;;;;;;9.19;100.00;102614.16;4972858;28;20365;-72
2023/04/19 03:23:54;;;;;;;;;;;;;;;9.13;100.00;102606.41;4972798;28;20346;-73
2023/04/19 03:26:19;;;;;;;;;;;;;;;9.11;100.00;102608.28;4973263;28;20187;-72
2023/04/19 03:28:44;;;;;;;;;;;;;;;9.17;100.00;102609.81;4971317;28;19926;-72
2023/04/19 03:31:09;;;;;;;;;;;;;;;9.13;100.00;102604.56;4974483;28;20354;-73
2023/04/19 03:33:35;;;;;;;;;;;;;;;9.05;100.00;102609.38;4969585;28;20376;-72
2023/04/19 03:36:00;;;;;;;;;;;;;;;9.09;100.00;102607.47;4977420;28;20431;-72
2023/04/19 03:38:25;;;;;;;;;;;;;;;9.07;100.00;102610.19;4984418;28;19965;-73
2023/04/19 03:40:50;;;;;;;;;;;;;;;9.08;100.00;102598.53;4970528;28;20020;-72
2023/04/19 03:43:16;;;;;;;;;;;;;;;9.01;100.00;102607.78;4966004;28;19960;-72
2023/04/19 03:45:41;;;;;;;;;;;;;;;9.04;100.00;102604.09;4975196;28;20176;-73
2023/04/19 03:48:06;;;;;;;;;;;;;;;8.89;100.00;102611.84;4968616;28;19969;-72
2023/04/19 03:50:31;;;;;;;;;;;;;;;8.92;100.00;102614.41;4974763;28;20020;-73
2023/04/19 03:52:57;;;;;;;;;;;;;;;8.83;100.00;102613.00;4971093;28;20258;-75
2023/04/19 03:55:22;;;;;;;;;;;;;;;8.82;100.00;102621.09;4964642;28;20044;-73
2023/04/19 03:57:47;;;;;;;;;;;;;;;8.68;100.00;102616.31;4968153;28;19973;-71
2023/04/19 04:00:12;;;;;;;;;;;;;;;8.59;100.00;102616.69;4980420;28;19925;-72
2023/04/19 04:02:38;;;;;;;;;;;;;;;8.51;100.00;102614.31;4966068;28;19921;-71
2023/04/19 04:05:04;;;;;;;;;;;;;;;8.32;100.00;102617.72;4969227;28;20052;-72
2023/04/19 04:07:29;;;;;;;;;;;;;;;8.21;100.00;102619.94;4977265;28;20056;-72
2023/04/19 04:09:54;;;;;;;;;;;;;;;8.18;100.00;102623.63;4990163;28;20399;-72
2023/04/19 04:12:19;;;;;;;;;;;;;;;8.16;100.00;102625.47;4973060;28;20438;-71
2023/04/19 04:14:45;;;;;;;;;;;;;;;8.09;100.00;102626.63;4976768;28;20254;-71
2023/04/19 04:17:10;;;;;;;;;;;;;;;7.95;100.00;102625.34;4974411;28;20502;-71
2023/04/19 04:19:35;;;;;;;;;;;;;;;7.89;100.00;102620.25;4972256;28;21005;-71
2023/04/19 04:22:00;;;;;;;;;;;;;;;7.87;100.00;102621.22;4991248;28;20497;-71
2023/04/19 04:24:26;;;;;;;;;;;;;;;7.81;100.00;102625.88;4973761;28;20328;-71
2023/04/19 04:26:52;;;;;;;;;;;;;;;7.77;100.00;102618.94;4973263;28;19952;-71
2023/04/19 04:29:17;;;;;;;;;;;;;;;7.72;100.00;102623.56;4991621;28;20060;-72
2023/04/19 04:31:42;;;;;;;;;;;;;;;7.74;100.00;102620.81;4972761;28;19926;-71
2023/04/19 04:34:08;;;;;;;;;;;;;;;7.71;100.00;102612.91;4979805;28;19932;-71
2023/04/19 04:36:34;;;;;;;;;;;;;;;7.72;100.00;102615.53;4981281;28;19947;-71
2023/04/19 04:39:00;;;;;;;;;;;;;;;7.71;100.00;102616.47;4976677;28;19997;-70
2023/04/19 04:41:26;;;;;;;;;;;;;;;7.67;100.00;102616.66;4987714;28;20012;-71
2023/04/19 04:43:52;;;;;;;;;;;;;;;7.64;100.00;102607.81;4974097;28;20128;-71
2023/04/19 04:46:17;;;;;;;;;;;;;;;7.59;100.00;102614.25;4964756;28;20356;-71
2023/04/19 04:48:42;;;;;;;;;;;;;;;7.62;100.00;102600.75;4971252;28;19930;-71
2023/04/19 04:51:08;;;;;;;;;;;;;;;7.65;100.00;102612.25;4969521;28;20334;-71
2023/04/19 04:53:33;;;;;;;;;;;;;;;7.62;100.00;102611.47;4966694;28;20041;-72
2023/04/19 04:55:58;;;;;;;;;;;;;;;7.63;100.00;102608.75;4973417;28;19963;-71
2023/04/19 04:58:23;;;;;;;;;;;;;;;7.68;100.00;102613.06;4972706;28;19924;-71
2023/04/19 05:00:49;;;;;;;;;;;;;;;7.70;100.00;102612.06;4966818;28;19928;-71
2023/04/19 05:03:14;;;;;;;;;;;;;;;7.71;100.00;102610.25;4972688;28;20284;-71
2023/04/19 05:05:39;;;;;;;;;;;;;;;7.78;100.00;102615.31;4972915;28;19926;-71
2023/04/19 05:08:05;;;;;;;;;;;;;;;7.85;100.00;102617.75;4974262;28;20312;-71
2023/04/19 05:10:30;;;;;;;;;;;;;;;7.83;100.00;102617.81;4972545;28;19928;-72
2023/04/19 05:12:55;;;;;;;;;;;;;;;7.90;100.00;102615.78;4973537;28;20012;-71
2023/04/19 05:15:20;;;;;;;;;;;;;;;7.95;100.00;102617.31;4965889;28;20404;-71
2023/04/19 05:17:46;;;;;;;;;;;;;;;8.02;100.00;102620.66;4971537;28;19922;-71
2023/04/19 05:20:11;;;;;;;;;;;;;;;7.96;100.00;102627.09;4969531;28;19922;-71
2023/04/19 05:22:36;;;;;;;;;;;;;;;8.03;100.00;102629.53;4975977;28;19922;-71
2023/04/19 05:25:02;;;;;;;;;;;;;;;8.02;100.00;102634.03;4971475;28;19968;-72
2023/04/19 05:27:27;;;;;;;;;;;;;;;8.08;100.00;102630.25;4989646;28;20402;-71
2023/04/19 05:29:52;;;;;;;;;;;;;;;8.15;100.00;102639.78;4972855;28;20584;-71
2023/04/19 05:32:17;;;;;;;;;;;;;;;8.16;100.00;102638.84;4965241;28;20276;-71
2023/04/19 05:34:43;;;;;;;;;;;;;;;8.32;100.00;102643.59;4970481;28;20373;-71
2023/04/19 05:37:08;;;;;;;;;;;;;;;8.46;100.00;102643.94;4971545;28;20547;-71
2023/04/19 05:39:33;;;;;;;;;;;;;;;8.47;100.00;102643.00;4970604;28;20418;-72
2023/04/19 05:41:59;;;;;;;;;;;;;;;8.45;100.00;102649.34;4973214;28;19932;-72
2023/04/19 05:44:24;;;;;;;;;;;;;;;8.44;100.00;102650.28;4972035;28;19957;-71
2023/04/19 05:46:49;;;;;;;;;;;;;;;8.31;100.00;102626.69;4969874;28;20056;-71
2023/04/19 05:49:14;;;;;;;;;;;;;;;8.46;100.00;102640.38;4971734;28;19973;-71
2023/04/19 05:51:40;;;;;;;;;;;;;;;8.34;100.00;102653.28;4966727;28;20040;-72
2023/04/19 05:54:05;;;;;;;;;;;;;;;8.40;100.00;102628.97;4972871;28;19917;-72
2023/04/19 05:56:30;;;;;;;;;;;;;;;8.53;100.00;102642.78;4972337;28;19930;-72
2023/04/19 05:58:55;;;;;;;;;;;;;;;8.63;100.00;102645.09;4974836;28;19999;-71
2023/04/19 06:01:21;;;;;;;;;;;;;;;8.61;100.00;102646.94;4973519;28;20383;-71
2023/04/19 06:03:51;;;;;;;;;;;;;;;8.60;100.00;102638.06;4974874;28;19922;-71
2023/04/19 06:06:16;;;;;;;;;;;;;;;8.59;100.00;102636.31;4979679;28;19963;-71
2023/04/19 06:08:41;;;;;;;;;;;;;;;8.70;100.00;102634.06;4973408;28;20012;-71
2023/04/19 06:11:07;;;;;;;;;;;;;;;8.76;100.00;102632.91;4977696;28;19922;-71
2023/04/19 06:13:32;;;;;;;;;;;;;;;8.77;100.00;102640.03;4987552;28;19925;-71
2023/04/19 06:15:57;;;;;;;;;;;;;;;8.80;100.00;102639.91;4973333;28;19933;-72
2023/04/19 06:18:22;;;;;;;;;;;;;;;8.92;97.24;102637.66;4987150;28;19926;-72
2023/04/19 06:20:48;;;;;;;;;;;;;;;9.03;98.94;102632.69;4975352;28;19925;-71
2023/04/19 06:23:13;;;;;;;;;;;;;;;9.12;96.32;102635.00;4994887;28;19926;-72
2023/04/19 06:25:38;;;;;;;;;;;;;;;9.08;93.81;102632.53;4976834;28;20703;-72
2023/04/19 06:28:04;;;;;;;;;;;;;;;9.23;92.98;102633.66;4970383;28;20422;-71
2023/04/19 06:30:29;;;;;;;;;;;;;;;9.22;90.88;102632.78;4971854;28;20020;-71
2023/04/19 06:32:54;;;;;;;;;;;;;;;9.28;91.93;102634.31;4973032;28;19917;-71
2023/04/19 06:35:20;;;;;;;;;;;;;;;9.35;93.06;102641.16;4976687;28;19929;-71
2023/04/19 06:37:45;;;;;;;;;;;;;;;9.47;92.26;102638.88;4972353;28;19964;-72
2023/04/19 06:40:10;;;;;;;;;;;;;;;9.45;88.14;102639.81;4975384;28;19922;-71
2023/04/19 06:42:36;;;;;;;;;;;;;;;9.56;85.49;102636.66;4976120;28;20004;-71
2023/04/19 06:45:01;;;;;;;;;;;;;;;9.54;83.90;102637.66;4972626;28;20397;-72
2023/04/19 06:47:27;;;;;;;;;;;;;;;9.56;80.63;102641.13;4991641;28;20456;-72
2023/04/19 06:49:52;;;;;;;;;;;;;;;9.65;77.93;102638.06;4970824;28;20327;-72
2023/04/19 06:52:18;;;;;;;;;;;;;;;9.65;80.62;102635.38;4969488;28;20429;-72
2023/04/19 06:54:49;;;;;;;;;;;;;;;9.88;77.45;102637.00;4974401;28;20392;-72
2023/04/19 06:57:17;;;;;;;;;;;;;;;9.95;76.18;102623.28;4971060;28;19922;-71
2023/04/19 06:59:43;;;;;;;;;;;;;;;9.99;73.26;102643.69;4969606;28;19980;-72
2023/04/19 07:02:08;;;;;;;;;;;;;;;10.18;75.46;102633.84;4971162;28;20452;-72
2023/04/19 07:04:33;;;;;;;;;;;;;;;10.45;71.99;102629.91;4975752;28;19965;-73
2023/04/19 07:06:59;;;;;;;;;;;;;;;10.52;70.40;102641.22;4976858;28;20402;-72
2023/04/19 07:09:24;;;;;;;;;;;;;;;10.64;70.92;102638.81;4970753;28;19921;-73
2023/04/19 07:11:50;;;;;;;;;;;;;;;10.90;72.68;102633.94;4967414;28;19961;-72
2023/04/19 07:14:15;;;;;;;;;;;;;;;10.93;67.48;102627.56;4991856;28;20295;-72
2023/04/19 07:16:40;;;;;;;;;;;;;;;11.13;70.13;102628.34;4974421;28;20672;-72
2023/04/19 07:19:06;;;;;;;;;;;;;;;11.34;66.51;102632.59;4971680;28;19961;-72
2023/04/19 07:21:32;;;;;;;;;;;;;;;11.19;68.34;102636.94;4975002;28;20025;-71
2023/04/19 07:23:57;;;;;;;;;;;;;;;11.16;61.77;102618.28;4978482;28;20202;-71
2023/04/19 07:26:23;;;;;;;;;;;;;;;11.05;66.33;102634.13;4972932;28;20387;-71
2023/04/19 07:28:49;;;;;;;;;;;;;;;11.23;63.34;102638.53;4954730;28;19961;-71
2023/04/19 07:31:15;;;;;;;;;;;;;;;11.05;60.00;102642.19;4971117;28;19968;-74
2023/04/19 07:33:40;;;;;;;;;;;;;;;11.27;61.30;102643.75;4974316;28;20388;-71
2023/04/19 07:36:06;;;;;;;;;;;;;;;11.28;60.67;102637.44;4975609;28;19960;-72
2023/04/19 07:38:31;;;;;;;;;;;;;;;11.55;61.83;102633.28;4969923;28;19926;-71
2023/04/19 07:40:56;;;;;;;;;;;;;;;11.61;63.15;102634.78;4970667;28;20365;-71
2023/04/19 07:43:21;;;;;;;;;;;;;;;12.04;60.34;102631.59;4972240;28;20403;-71
2023/04/19 07:45:46;;;;;;;;;;;;;;;12.00;58.48;102638.97;4971992;28;19971;-71
2023/04/19 07:48:12;;;;;;;;;;;;;;;11.90;55.93;102640.41;4977081;28;19929;-72
2023/04/19 07:50:37;;;;;;;;;;;;;;;12.17;56.23;102633.63;4971960;28;19930;-72
2023/04/19 07:53:02;;;;;;;;;;;;;;;12.11;52.43;102638.38;4972138;28;19949;-71
2023/04/19 07:55:27;;;;;;;;;;;;;;;12.15;51.76;102642.66;4973807;28;19922;-71
2023/04/19 07:57:53;;;;;;;;;;;;;;;12.38;54.24;102639.59;4966812;28;19972;-71
2023/04/19 08:00:20;;;;;;;;;;;;;;;12.26;52.74;102642.03;4967140;28;20002;-72
2023/04/19 08:02:45;;;;;;;;;;;;;;;12.47;52.89;102632.81;4971153;28;19957;-71
2023/04/19 08:05:11;;;;;;;;;;;;;;;12.42;51.15;102635.78;4973582;28;20012;-72
2023/04/19 08:07:37;;;;;;;;;;;;;;;12.55;49.96;102627.84;4969156;28;20443;-72
2023/04/19 08:10:02;;;;;;;;;;;;;;;12.62;50.91;102633.75;4974262;28;20315;-70
2023/04/19 08:12:27;;;;;;;;;;;;;;;12.88;50.05;102630.41;4975310;28;19961;-70
2023/04/19 08:14:52;;;;;;;;;;;;;;;12.79;49.45;102630.97;4972346;28;19925;-71
2023/04/19 08:17:20;;;;;;;;;;;;;;;12.45;48.85;102641.84;4970622;28;20135;-71
2023/04/19 08:19:45;;;;;;;;;;;;;;;12.66;50.70;102644.28;4970608;28;20223;-71
2023/04/19 08:22:10;;;;;;;;;;;;;;;12.75;51.07;102640.19;4970703;28;20466;-71
2023/04/19 08:24:36;;;;;;;;;;;;;;;12.68;48.85;102638.78;4972236;28;19968;-72
2023/04/19 08:27:01;;;;;;;;;;;;;;;12.90;48.85;102633.88;4971146;28;20004;-72
2023/04/19 08:29:26;;;;;;;;;;;;;;;12.49;48.65;102629.09;4967961;28;20012;-71
2023/04/19 08:31:51;;;;;;;;;;;;;;;12.49;48.71;102633.59;4967763;28;20265;-71
2023/04/19 08:34:16;;;;;;;;;;;;;;;12.45;47.86;102630.22;4973671;28;20489;-71
2023/04/19 08:36:42;;;;;;;;;;;;;;;12.64;49.44;102621.06;4973078;28;20697;-71
2023/04/19 08:39:07;;;;;;;;;;;;;;;12.94;50.28;102622.91;4973780;28;19924;-72
2023/04/19 08:41:33;;;;;;;;;;;;;;;13.16;50.32;102617.09;4974931;28;19929;-71
2023/04/19 08:43:58;;;;;;;;;;;;;;;13.46;49.16;102616.22;4989600;28;19922;-71
2023/04/19 08:46:25;;;;;;;;;;;;;;;13.85;51.94;102616.53;4990491;28;19928;-71
2023/04/19 08:48:50;;;;;;;;;;;;;;;13.45;48.65;102619.88;4970490;28;19926;-73
2023/04/19 08:51:16;;;;;;;;;;;;;;;13.58;51.36;102626.25;4990410;28;20050;-74
2023/04/19 08:53:41;;;;;;;;;;;;;;;13.44;48.47;102623.53;4970904;28;19961;-72
2023/04/19 08:56:06;;;;;;;;;;;;;;;13.25;47.37;102621.06;4976851;28;20386;-75
2023/04/19 08:58:32;;;;;;;;;;;;;;;13.33;49.04;102619.63;4981735;28;20442;-73
2023/04/19 09:00:57;;;;;;;;;;;;;;;13.15;46.53;102618.06;4967322;28;20291;-73
2023/04/19 09:03:22;;;;;;;;;;;;;;;13.34;46.31;102615.13;4988570;28;19921;-73
2023/04/19 09:05:47;;;;;;;;;;;;;;;13.28;49.11;102612.78;4986693;28;19924;-73
2023/04/19 09:08:20;;;;;;;;;;;;;;;13.41;50.23;102615.63;4984506;28;20000;-73
2023/04/19 09:10:51;;;;;;;;;;;;;;;13.20;47.55;102606.03;4970579;28;20020;-73
2023/04/19 09:13:17;;;;;;;;;;;;;;;13.52;48.89;102610.41;4971576;28;20571;-74
2023/04/19 09:15:43;;;;;;;;;;;;;;;13.80;49.86;102612.28;4989761;28;19924;-73
2023/04/19 09:18:09;;;;;;;;;;;;;;;13.97;48.28;102612.16;4966341;28;19922;-73
2023/04/19 09:20:41;;;;;;;;;;;;;;;13.72;48.30;102611.88;4989506;28;19996;-72
2023/04/19 09:23:07;;;;;;;;;;;;;;;13.81;47.55;102607.72;4974144;28;19925;-73
2023/04/19 09:25:32;;;;;;;;;;;;;;;13.99;49.11;102613.78;4968477;28;19929;-73
2023/04/19 09:28:26;;;;;;;;;;;;;;;14.16;45.95;102617.25;4974188;28;20388;-72
2023/04/19 09:30:52;;;;;;;;;;;;;;;13.80;46.40;102609.56;4970130;28;19922;-72
2023/04/19 09:33:40;;;;;;;;;;;;;;;14.13;44.23;102602.09;4964391;28;19929;-73
2023/04/19 09:36:06;;;;;;;;;;;;;;;13.85;45.38;102609.28;4979181;28;20266;-72
2023/04/19 09:38:52;;;;;;;;;;;;;;;13.79;43.72;102606.94;4976490;28;19921;-72
2023/04/19 09:41:17;;;;;;;;;;;;;;;14.11;44.13;102609.44;4976365;28;20192;-73
2023/04/19 09:43:43;;;;;;;;;;;;;;;14.55;43.85;102602.06;4985321;28;19922;-74
2023/04/19 09:46:08;;;;;;;;;;;;;;;14.63;44.16;102601.53;4977306;28;20431;-74
2023/04/19 09:48:35;;;;;;;;;;;;;;;14.30;44.39;102600.16;4976459;28;19969;-72
2023/04/19 09:51:01;;;;;;;;;;;;;;;13.84;43.34;102593.19;4992523;28;19928;-72
2023/04/19 09:53:27;;;;;;;;;;;;;;;14.15;43.06;102602.88;4977247;28;19957;-72
2023/04/19 09:55:52;;;;;;;;;;;;;;;14.10;41.66;102596.88;4985719;28;20012;-74
2023/04/19 09:58:18;;;;;;;;;;;;;;;14.47;40.46;102593.59;4988689;28;20399;-73
2023/04/19 10:00:43;;;;;;;;;;;;;;;14.44;39.62;102596.50;4974392;28;19968;-73
2023/04/19 10:03:09;;;;;;;;;;;;;;;14.70;43.37;102598.34;4973790;28;19933;-72
2023/04/19 10:05:38;;;;;;;;;;;;;;;14.65;41.62;102618.53;4991442;28;19928;-73
2023/04/19 10:08:03;;;;;;;;;;;;;;;14.06;40.36;102592.66;4972583;28;19925;-72
2023/04/19 10:10:29;;;;;;;;;;;;;;;14.68;41.53;102584.09;4989951;28;19929;-72
2023/04/19 10:12:54;;;;;;;;;;;;;;;14.64;41.21;102598.75;4965582;28;19926;-73
2023/04/19 10:15:21;;;;;;;;;;;;;;;14.63;38.94;102598.84;4983189;28;19929;-71
2023/04/19 10:17:47;;;;;;;;;;;;;;;14.95;40.71;102603.94;4974359;28;19922;-73
2023/04/19 10:20:16;;;;;;;;;;;;;;;15.05;40.75;102586.13;4968103;28;19933;-73
2023/04/19 10:22:41;;;;;;;;;;;;;;;15.32;39.70;102593.28;4972541;28;19969;-71
2023/04/19 10:25:08;;;;;;;;;;;;;;;15.08;37.22;102603.97;4988611;28;19922;-73
2023/04/19 10:27:34;;;;;;;;;;;;;;;14.99;39.27;102590.09;4973802;28;20546;-73
2023/04/19 10:30:00;;;;;;;;;;;;;;;15.51;39.33;102584.69;4962800;28;19931;-72
2023/04/19 10:32:44;;;;;;;;;;;;;;;15.77;38.93;102589.22;4983042;28;19922;-72
2023/04/19 10:35:10;;;;;;;;;;;;;;;15.39;41.33;102585.59;4982761;28;19928;-73
2023/04/19 10:37:38;;;;;;;;;;;;;;;16.03;39.90;102580.09;4976030;28;19957;-72
2023/04/19 10:40:04;;;;;;;;;;;;;;;16.73;39.76;102577.63;4977918;28;20398;-72
2023/04/19 10:42:48;;;;;;;;;;;;;;;17.24;38.97;102578.28;4974295;28;19921;-72
2023/04/19 10:45:33;;;;;;;;;;;;;;;17.36;37.24;102580.00;4970857;28;19976;-72
2023/04/19 10:47:58;;;;;;;;;;;;;;;16.90;37.20;102579.03;4992002;28;19926;-74
2023/04/19 10:50:23;;;;;;;;;;;;;;;16.91;37.68;102561.78;4977932;28;20292;-72
2023/04/19 10:52:49;;;;;;;;;;;;;;;17.54;37.36;102574.09;4977452;28;20597;-72
2023/04/19 10:55:14;;;;;;;;;;;;;;;17.43;39.42;102576.81;4974971;28;20384;-72
2023/04/19 10:57:58;;;;;;;;;;;;;;;17.27;36.27;102569.91;4975856;28;19918;-73
2023/04/19 11:00:25;;;;;;;;;;;;;;;16.36;35.19;102558.72;4969924;28;20437;-74
2023/04/19 11:02:50;;;;;;;;;;;;;;;17.50;37.22;102557.19;4973181;28;20012;-71
2023/04/19 11:05:16;;;;;;;;;;;;;;;16.97;35.41;102556.88;4972220;28;19968;-75
2023/04/19 11:07:41;;;;;;;;;;;;;;;17.32;37.56;102551.41;4970931;28;19926;-71
2023/04/19 11:10:07;;;;;;;;;;;;;;;17.14;35.38;102544.69;4975396;28;19964;-73
2023/04/19 11:12:32;;;;;;;;;;;;;;;17.18;35.66;102538.03;4970813;28;19928;-71
2023/04/19 11:14:59;;;;;;;;;;;;;;;18.17;35.66;102537.38;4992102;28;19922;-72
2023/04/19 11:17:24;;;;;;;;;;;;;;;18.56;33.93;102549.44;4988940;28;19922;-74
2023/04/19 11:19:56;;;;;;;;;;;;;;;18.20;37.38;102515.38;4971572;28;19973;-73
2023/04/19 11:22:25;;;;;;;;;;;;;;;18.20;30.86;102546.13;4970274;28;19917;-72
2023/04/19 11:24:50;;;;;;;;;;;;;;;17.33;32.92;102536.84;4991644;28;20013;-72
2023/04/19 11:27:16;;;;;;;;;;;;;;;18.68;33.48;102547.53;4974748;28;20280;-71
2023/04/19 11:29:41;;;;;;;;;;;;;;;19.16;34.36;102527.13;4971793;28;20028;-71
2023/04/19 11:32:06;;;;;;;;;;;;;;;19.92;33.12;102530.44;4975402;28;19921;-71
2023/04/19 11:34:38;;;;;;;;;;;;;;;19.90;31.55;102532.44;4976196;28;20342;-71
2023/04/19 11:37:03;;;;;;;;;;;;;;;19.72;28.11;102541.25;4986758;28;20555;-74
2023/04/19 11:39:28;;;;;;;;;;;;;;;19.31;30.54;102519.44;4990722;28;19933;-71
2023/04/19 11:41:54;;;;;;;;;;;;;;;18.80;30.23;102510.25;4975869;28;19964;-71
2023/04/19 11:44:19;;;;;;;;;;;;;;;18.63;30.27;102510.84;4973620;28;19975;-72
2023/04/19 11:47:01;;;;;;;;;;;;;;;18.75;29.74;102504.34;4970357;28;20206;-76
2023/04/19 11:49:30;;;;;;;;;;;;;;;18.91;30.04;102495.69;4975905;28;20382;-71
2023/04/19 11:51:59;;;;;;;;;;;;;;;19.14;29.87;102504.59;4976815;28;19917;-70
2023/04/19 11:54:25;;;;;;;;;;;;;;;19.68;30.16;102504.38;4974656;28;19932;-71
2023/04/19 11:57:17;;;;;;;;;;;;;;;19.25;29.82;102492.75;4971723;28;20354;-71
2023/04/19 12:00:00;;;;;;;;;;;;;;;19.52;28.54;102495.84;4967825;28;19955;-71
2023/04/19 12:02:25;;;;;;;;;;;;;;;19.36;27.23;102499.97;4977751;28;19918;-72
2023/04/19 12:04:51;;;;;;;;;;;;;;;19.74;32.54;102456.63;4974541;28;19949;-71
2023/04/19 12:07:16;;;;;;;;;;;;;;;19.87;27.95;102467.25;4971352;28;19989;-71
2023/04/19 12:09:41;;;;;;;;;;;;;;;20.70;27.81;102477.72;4987429;28;19921;-71
2023/04/19 12:12:06;;;;;;;;;;;;;;;21.45;28.10;102468.72;4988240;28;19971;-72
2023/04/19 12:14:32;;;;;;;;;;;;;;;20.26;27.22;102483.66;4976889;28;20000;-72
2023/04/19 12:17:11;;;;;;;;;;;;;;;19.94;28.04;102471.19;4987458;28;19921;-73
2023/04/19 12:19:37;;;;;;;;;;;;;;;21.15;27.68;102456.22;4992066;28;19944;-72
2023/04/19 12:22:09;;;;;;;;;;;;;;;21.05;26.79;102469.94;4974931;28;19921;-71
2023/04/19 12:24:34;;;;;;;;;;;;;;;21.48;28.64;102459.34;4990271;28;19926;-73
2023/04/19 12:27:00;;;;;;;;;;;;;;;21.45;28.24;102446.88;4973456;28;20272;-72
2023/04/19 12:29:25;;;;;;;;;;;;;;;21.98;28.11;102441.63;4973267;28;19953;-72
2023/04/19 12:31:50;;;;;;;;;;;;;;;21.38;25.79;102465.75;4991081;28;19949;-73